メインページ
METAR-TAF:

METAR-TAF

空港 :

ナイロビ, ケニヤ

ジョモ・ケニヤッタ国際空港

緯度: 01-19S, 経度: 036-55E, 海抜: 1624m

現時点の気象観測

当レポートは28分前の03:00(UTC)に作成
西/北西の風 2kt
気温 14°C
湿度 88%
気圧 1020 hPa
視程10km以上
1,500メートル以下は雲なし、積乱雲なし

METAR: HKJK 170300Z 30002KT CAVOK 14/12 Q1020

時間: 06:28 (03:28 UTC)

予報

当レポートは4時間28分前の23:00(UTC)に作成
予報は17日の 00時(UTC)から 18日の 06時(UTC)まで有効
の風 5kt
視程10km以上
1,500メートル以下は雲なし、積乱雲なし
17日の 00時(UTC)から 17日の 06時(UTC)まで一時的に
視程10km以上
高度2000ftの雲はほとんどない
17日の 08時(UTC)から 17日の 11時(UTC)まで徐々に
北/北東の風 10kt
高度2800ftの雲はほとんどない
17日の 20時(UTC)から 17日の 23時(UTC)まで徐々に
の風 5kt
視程10km以上
1,500メートル以下は雲なし、積乱雲なし

TAF: HKJK 162300Z 1700/1806 36005KT CAVOK TEMPO 1700/1706 9999 FEW020 BECMG 1708/1711 03010KT FEW028 BECMG 1720/1723 01005KT CAVOK

4,000以上の空港の気象観測と天気予報(METAR報とTAF報)

利用可能な観測所は地図上に黄色い丸と赤い丸で示す。

丸の上にカーソルを重ねると観測所名を参照できる。

次にクリックすると気象観測と天気予報を参照できる。

マップの切り替え:黒色「×」印の緑ボタンをクリックして拡大、「-」印の緑ボタンをクリックして縮小、緑色の三角印をクリックして隣りの地図に切り替え


METAR-TAF: